Terminal Aerodrome Forecast
Issued by NWS

Home | Current Version | Previous Version | Text Only | Print | Product List | Glossary Off
Versions: 1 2 3 4 5 6 7 8 9 10 11 12 13 14 15 16 17

000
FTUS43 KICT 162334
TAFRSL
TAF
KRSL 162334Z 1700/1724 11015G22KT P6SM VCTS SCT040 BKN100CB
      TEMPO 1700/1704 4SM -TSRA BKN035CB
     FM170400 11010KT 5SM -TSRA OVC035CB
     FM171100 12010KT P6SM VCTS OVC025CB
     FM171600 16017G27KT P6SM SCT020 BKN035=

USA.gov is the U.S. government's official web portal to all federal, state and local government web resources and services.